createdAt,value
2023-03-17T00:01:10.616Z,85.40
2023-03-17T00:03:38.129Z,96.97
2023-03-17T00:06:05.159Z,85.50
2023-03-17T00:08:32.578Z,74.43
2023-03-17T00:10:59.426Z,78.07
2023-03-17T00:13:26.290Z,71.50
2023-03-17T00:15:53.652Z,74.33
2023-03-17T00:18:20.308Z,75.80
2023-03-17T00:20:47.098Z,69.10
2023-03-17T00:23:15.387Z,75.13
2023-03-17T00:25:43.328Z,70.47
2023-03-17T00:28:13.880Z,83.17
2023-03-17T00:30:40.503Z,91.27
2023-03-17T00:33:07.650Z,99.80
2023-03-17T00:35:34.441Z,85.83
2023-03-17T00:38:01.092Z,83.70
2023-03-17T00:40:32.703Z,89.33
2023-03-17T00:43:03.165Z,81.93
2023-03-17T00:45:29.832Z,73.13
2023-03-17T00:47:57.665Z,80.00
2023-03-17T00:50:25.299Z,78.80
2023-03-17T00:52:52.847Z,74.87
2023-03-17T00:55:19.879Z,72.33
2023-03-17T00:57:47.649Z,75.77
2023-03-17T01:00:24.699Z,74.60
2023-03-17T01:02:51.777Z,72.00
2023-03-17T01:05:19.664Z,71.87
2023-03-17T01:07:48.875Z,79.13
2023-03-17T01:10:16.779Z,75.13
2023-03-17T01:12:43.680Z,72.40
2023-03-17T01:15:13.137Z,76.33
2023-03-17T01:17:40.109Z,68.83
2023-03-17T01:20:07.222Z,64.53
2023-03-17T01:22:34.092Z,70.43
2023-03-17T01:25:01.627Z,67.90
2023-03-17T01:27:29.104Z,72.67
2023-03-17T01:29:55.706Z,68.53
2023-03-17T01:32:22.450Z,70.00
2023-03-17T01:34:48.985Z,65.63
2023-03-17T01:37:15.636Z,72.17
2023-03-17T01:39:42.179Z,69.43
2023-03-17T01:42:08.851Z,59.17
2023-03-17T02:16:27.822Z,48.47
2023-03-17T02:18:54.615Z,58.43
2023-03-17T02:21:36.628Z,50.40
2023-03-17T02:24:05.339Z,52.73
2023-03-17T02:26:32.659Z,50.07
2023-03-17T02:28:59.310Z,38.27
2023-03-17T02:31:26.136Z,39.97
2023-03-17T02:33:53.082Z,20.67
2023-03-17T02:36:20.707Z,21.07
2023-03-17T02:38:47.502Z,14.73
2023-03-17T02:41:14.132Z,12.93
2023-03-17T02:43:41.492Z,14.30
2023-03-17T02:46:08.197Z,13.27
2023-03-17T02:48:34.977Z,8.73
2023-03-17T02:51:01.570Z,11.03
2023-03-17T02:53:28.277Z,13.20
2023-03-17T02:55:54.806Z,14.30
2023-03-17T02:58:21.461Z,10.93
2023-03-17T03:00:49.339Z,10.50
2023-03-17T03:03:16.227Z,12.83
2023-03-17T03:05:42.958Z,10.70
2023-03-17T03:08:09.614Z,12.30
2023-03-17T03:10:36.380Z,9.53
2023-03-17T03:13:03.241Z,9.33
2023-03-17T03:15:29.836Z,9.47
2023-03-17T03:17:56.496Z,7.90
2023-03-17T03:20:23.065Z,14.40
2023-03-17T03:22:49.928Z,12.50
2023-03-17T03:25:17.320Z,9.83
2023-03-17T03:27:43.959Z,10.10
2023-03-17T03:30:10.843Z,9.73
2023-03-17T03:32:37.818Z,12.35
2023-03-17T03:35:04.604Z,9.73
2023-03-17T03:37:31.278Z,8.80
2023-03-17T03:39:57.815Z,11.00
2023-03-17T03:42:24.420Z,9.17
2023-03-17T03:44:51.418Z,11.67
2023-03-17T03:47:18.090Z,13.40
2023-03-17T03:52:28.607Z,12.43
2023-03-17T03:54:55.180Z,12.33
2023-03-17T03:57:21.784Z,14.43
2023-03-17T03:59:48.387Z,9.67
2023-03-17T04:02:15.030Z,12.70
2023-03-17T04:04:42.881Z,16.17
2023-03-17T04:07:10.026Z,11.20
2023-03-17T04:09:36.678Z,15.10
2023-03-17T04:12:03.634Z,12.37
2023-03-17T04:14:30.434Z,13.00
2023-03-17T04:16:57.234Z,15.90
2023-03-17T04:19:24.144Z,18.30
2023-03-17T04:21:53.633Z,25.10
2023-03-17T04:24:21.381Z,18.93
2023-03-17T04:26:48.147Z,16.73
2023-03-17T04:29:16.086Z,20.50
2023-03-17T04:32:03.850Z,12.40
2023-03-17T04:35:54.844Z,13.80
2023-03-17T04:42:13.453Z,13.10
2023-03-17T04:45:07.146Z,12.47
2023-03-17T04:48:17.441Z,12.50
2023-03-17T04:50:55.528Z,14.73
2023-03-17T04:57:07.147Z,16.90
2023-03-17T05:03:26.785Z,17.30
2023-03-17T05:06:47.117Z,20.00
2023-03-17T05:17:56.882Z,18.00
2023-03-17T05:21:00.808Z,18.77
2023-03-17T05:23:54.904Z,16.37
2023-03-17T05:26:21.909Z,22.50
2023-03-17T05:28:49.162Z,21.40
2023-03-17T05:31:15.946Z,28.50
2023-03-17T05:33:43.521Z,28.03
2023-03-17T05:36:10.270Z,28.77
2023-03-17T05:38:37.058Z,28.03
2023-03-17T05:41:04.262Z,35.03
2023-03-17T05:43:31.303Z,27.90
2023-03-17T05:45:58.336Z,34.47
2023-03-17T05:48:25.380Z,36.53
2023-03-17T05:50:52.121Z,46.43
2023-03-17T05:53:18.759Z,45.90
2023-03-17T05:55:45.587Z,54.93
2023-03-17T05:58:12.862Z,58.80
2023-03-17T06:03:25.013Z,36.93
2023-03-17T06:08:36.097Z,34.40
2023-03-17T06:11:02.934Z,27.17
2023-03-17T06:13:29.903Z,32.07
2023-03-17T06:15:57.671Z,29.57
2023-03-17T06:18:24.564Z,29.43
2023-03-17T06:20:51.579Z,30.80
2023-03-17T06:23:18.958Z,36.30
2023-03-17T06:25:45.851Z,32.03
2023-03-17T06:28:13.409Z,27.93
2023-03-17T06:30:40.962Z,27.27
2023-03-17T06:33:08.268Z,27.30
2023-03-17T06:35:35.513Z,24.30
2023-03-17T06:38:02.391Z,26.33
2023-03-17T06:40:29.222Z,26.57
2023-03-17T06:42:56.622Z,31.70
2023-03-17T06:45:23.238Z,30.20
2023-03-17T06:47:49.908Z,29.40
2023-03-17T06:50:16.644Z,26.57
2023-03-17T06:52:45.026Z,27.30
2023-03-17T06:55:13.465Z,27.23
2023-03-17T06:57:40.047Z,25.67
2023-03-17T07:00:09.859Z,27.77
2023-03-17T07:02:36.658Z,24.60
2023-03-17T07:05:04.325Z,29.10
2023-03-17T07:07:31.727Z,23.70
2023-03-17T07:09:58.585Z,28.23
2023-03-17T07:12:25.241Z,29.73
2023-03-17T07:14:52.198Z,27.93
2023-03-17T07:17:19.738Z,25.70
2023-03-17T07:19:46.445Z,26.07
2023-03-17T07:22:13.090Z,23.20
2023-03-17T07:24:41.406Z,26.57
2023-03-17T07:27:08.660Z,24.83
2023-03-17T07:29:36.221Z,23.30
2023-03-17T07:32:05.461Z,29.60
2023-03-17T07:34:32.453Z,23.87
2023-03-17T07:36:59.169Z,24.63
2023-03-17T07:39:26.021Z,26.73
2023-03-17T07:41:55.254Z,26.27
2023-03-17T07:47:07.770Z,22.17
2023-03-17T07:49:41.126Z,25.83
2023-03-17T07:52:08.942Z,23.43
2023-03-17T07:54:36.359Z,21.27
2023-03-17T07:57:03.497Z,21.60
2023-03-17T07:59:30.291Z,20.70
2023-03-17T08:01:58.203Z,23.63
2023-03-17T08:04:24.850Z,24.23
2023-03-17T08:06:52.323Z,22.67
2023-03-17T08:09:18.928Z,24.07
2023-03-17T08:11:45.610Z,22.30
2023-03-17T08:14:13.236Z,21.53
2023-03-17T08:16:40.134Z,21.30
2023-03-17T08:19:07.757Z,27.97
2023-03-17T08:21:34.979Z,24.30
2023-03-17T08:24:01.778Z,21.37
2023-03-17T08:26:28.640Z,24.33
2023-03-17T08:28:55.622Z,20.80
2023-03-17T08:31:22.955Z,26.60
2023-03-17T08:33:51.036Z,25.07
2023-03-17T08:36:18.661Z,24.63
2023-03-17T08:38:46.229Z,27.67
2023-03-17T08:41:15.088Z,19.00
2023-03-17T08:43:42.841Z,21.33
2023-03-17T08:46:13.340Z,20.53
2023-03-17T08:48:40.007Z,18.87
2023-03-17T08:51:06.981Z,18.67
2023-03-17T08:53:35.486Z,18.60
2023-03-17T08:56:02.291Z,19.70
2023-03-17T08:58:29.584Z,18.40
2023-03-17T09:00:59.988Z,20.07
2023-03-17T09:03:27.131Z,20.07
2023-03-17T09:05:54.810Z,18.90
2023-03-17T09:08:22.412Z,18.83
2023-03-17T09:10:50.154Z,19.77
2023-03-17T09:13:17.689Z,19.93
2023-03-17T09:15:44.749Z,15.80
2023-03-17T09:18:11.623Z,18.20
2023-03-17T09:20:38.210Z,16.30
2023-03-17T09:23:08.252Z,15.10
2023-03-17T09:25:38.122Z,17.90
2023-03-17T09:28:04.913Z,18.03
2023-03-17T09:30:33.102Z,15.60
2023-03-17T09:33:00.766Z,14.90
2023-03-17T09:35:32.232Z,17.50
2023-03-17T09:37:59.145Z,15.30
2023-03-17T09:40:33.102Z,13.67
2023-03-17T09:43:03.201Z,16.33
2023-03-17T09:45:43.677Z,17.23
2023-03-17T09:48:19.664Z,18.93
2023-03-17T09:50:48.190Z,15.87
2023-03-17T09:53:22.034Z,13.93
2023-03-17T09:55:51.278Z,14.03
2023-03-17T09:58:19.703Z,15.57
2023-03-17T10:00:47.020Z,13.53
2023-03-17T10:03:13.989Z,12.03
2023-03-17T10:05:42.328Z,10.13
2023-03-17T10:08:31.359Z,12.90
2023-03-17T10:11:16.436Z,16.60
2023-03-17T10:14:00.883Z,13.33
2023-03-17T10:16:39.983Z,14.63
2023-03-17T10:19:10.705Z,11.73
2023-03-17T10:21:38.819Z,14.77
2023-03-17T10:24:05.778Z,13.60
2023-03-17T10:26:39.845Z,13.63
2023-03-17T10:29:12.535Z,14.47
2023-03-17T10:31:39.473Z,14.37
2023-03-17T10:34:15.306Z,14.30
2023-03-17T10:36:47.161Z,11.40
2023-03-17T10:39:15.226Z,10.27
2023-03-17T10:41:48.740Z,12.17
2023-03-17T10:44:22.528Z,10.80
2023-03-17T10:46:53.211Z,11.13
2023-03-17T10:49:23.012Z,10.70
2023-03-17T10:51:50.915Z,13.07
2023-03-17T10:54:18.037Z,10.60
2023-03-17T10:56:46.380Z,11.87
2023-03-17T10:59:20.345Z,11.57
2023-03-17T11:01:48.597Z,11.70
2023-03-17T11:04:22.084Z,13.40
2023-03-17T11:06:49.390Z,12.20
2023-03-17T11:09:18.534Z,13.53
2023-03-17T11:11:46.601Z,11.77
2023-03-17T11:14:14.013Z,8.50
2023-03-17T11:16:47.679Z,14.20
2023-03-17T11:19:15.586Z,12.70
2023-03-17T11:21:47.469Z,11.47
2023-03-17T11:24:15.026Z,8.97
2023-03-17T11:26:47.496Z,9.33
2023-03-17T11:29:22.465Z,12.43
2023-03-17T11:32:12.622Z,14.30
2023-03-17T11:34:42.968Z,11.97
2023-03-17T11:37:26.393Z,11.77
2023-03-17T11:40:06.197Z,14.50
2023-03-17T11:42:37.162Z,12.53
2023-03-17T11:45:10.478Z,11.00
2023-03-17T11:47:52.355Z,11.63
2023-03-17T11:50:28.798Z,9.33
2023-03-17T11:53:16.489Z,6.00
2023-03-17T11:55:45.591Z,10.10
2023-03-17T11:58:31.389Z,10.00
2023-03-17T12:00:58.685Z,11.27
2023-03-17T12:03:40.784Z,9.93
2023-03-17T12:06:11.243Z,10.87
2023-03-17T12:08:39.683Z,10.53
2023-03-17T12:11:07.255Z,9.63
2023-03-17T12:13:36.343Z,10.03
2023-03-17T12:16:11.337Z,12.30
2023-03-17T12:18:42.284Z,8.93
2023-03-17T12:21:22.347Z,9.33
2023-03-17T12:23:58.570Z,17.07
2023-03-17T12:26:43.806Z,16.40
2023-03-17T12:29:15.393Z,20.97
2023-03-17T12:32:05.902Z,13.50
2023-03-17T12:34:52.046Z,17.43
2023-03-17T12:37:19.237Z,18.73
2023-03-17T12:40:08.708Z,18.27
2023-03-17T12:42:42.651Z,15.00
2023-03-17T12:45:28.036Z,13.67
2023-03-17T12:48:13.801Z,10.57
2023-03-17T12:50:44.015Z,13.53
2023-03-17T12:53:22.959Z,15.27
2023-03-17T12:55:50.824Z,12.53
2023-03-17T12:58:25.346Z,16.70
2023-03-17T13:01:02.001Z,14.67
2023-03-17T13:06:19.728Z,11.57
2023-03-17T13:08:47.545Z,18.50
2023-03-17T13:11:46.101Z,17.90
2023-03-17T13:17:04.856Z,11.53
2023-03-17T13:19:32.686Z,11.23
2023-03-17T13:22:05.705Z,9.27
2023-03-17T13:24:40.422Z,13.27
2023-03-17T13:27:10.277Z,13.60
2023-03-17T13:29:36.925Z,16.73
2023-03-17T13:32:17.112Z,11.57
2023-03-17T13:34:50.849Z,12.00
2023-03-17T13:37:26.895Z,11.90
2023-03-17T13:40:09.394Z,11.23
2023-03-17T13:43:10.429Z,12.63
2023-03-17T13:45:41.327Z,13.97
2023-03-17T13:48:30.105Z,15.00
2023-03-17T13:51:02.639Z,10.97
2023-03-17T13:53:30.521Z,13.43
2023-03-17T13:56:05.117Z,15.77
2023-03-17T13:58:33.966Z,11.43
2023-03-17T14:01:02.926Z,16.27
2023-03-17T14:03:38.544Z,13.47
2023-03-17T14:06:07.292Z,14.23
2023-03-17T14:08:35.077Z,12.70
2023-03-17T14:11:15.869Z,11.73
2023-03-17T14:13:57.702Z,12.30
2023-03-17T14:16:24.967Z,20.93
2023-03-17T14:18:56.378Z,16.10
2023-03-17T14:21:32.350Z,25.87
2023-03-17T14:24:01.576Z,17.90
2023-03-17T14:26:29.766Z,23.07
2023-03-17T14:29:22.527Z,24.47
2023-03-17T14:31:49.901Z,21.97
2023-03-17T14:34:16.691Z,19.87
2023-03-17T14:36:43.758Z,18.93
2023-03-17T14:39:19.647Z,14.63
2023-03-17T14:41:46.538Z,16.57
2023-03-17T14:44:13.221Z,13.47
2023-03-17T14:46:41.277Z,13.37
2023-03-17T14:49:17.894Z,10.73
2023-03-17T14:51:44.797Z,15.13
2023-03-17T14:54:15.477Z,16.53
2023-03-17T14:56:43.159Z,13.07
2023-03-17T14:59:12.707Z,12.23
2023-03-17T15:01:42.570Z,12.57
2023-03-17T15:04:12.962Z,10.77
2023-03-17T15:06:49.829Z,12.83
2023-03-17T15:09:20.821Z,10.97
2023-03-17T15:11:47.765Z,10.57
2023-03-17T15:14:16.276Z,9.83
2023-03-17T15:16:49.898Z,8.90
2023-03-17T15:19:21.530Z,11.90
2023-03-17T15:21:48.668Z,12.30
2023-03-17T15:24:18.400Z,11.37
2023-03-17T15:26:45.194Z,11.83
2023-03-17T15:29:11.867Z,13.67
2023-03-17T15:31:38.676Z,11.50
2023-03-17T15:34:05.544Z,11.47
2023-03-17T15:36:33.379Z,10.00
2023-03-17T15:39:00.714Z,9.23
2023-03-17T15:41:27.654Z,11.67
2023-03-17T15:43:54.441Z,11.90
2023-03-17T15:46:24.057Z,17.80
2023-03-17T15:48:50.983Z,31.53
2023-03-17T15:51:18.122Z,24.17
2023-03-17T15:53:44.792Z,14.90
2023-03-17T15:56:19.192Z,16.33
2023-03-17T15:58:49.421Z,10.17
2023-03-17T16:01:16.806Z,12.83
2023-03-17T16:03:45.515Z,13.00
2023-03-17T16:06:19.237Z,10.10
2023-03-17T16:08:46.079Z,13.43
2023-03-17T16:11:19.882Z,13.87
2023-03-17T16:13:47.137Z,12.97
2023-03-17T16:16:18.245Z,16.57
2023-03-17T16:18:47.131Z,17.33
2023-03-17T16:21:13.879Z,14.07
2023-03-17T16:23:40.783Z,13.10
2023-03-17T16:26:15.433Z,15.33
2023-03-17T16:28:44.920Z,13.17
2023-03-17T16:31:31.027Z,14.97
2023-03-17T16:33:58.265Z,13.03
2023-03-17T16:36:25.539Z,14.10
2023-03-17T16:38:52.498Z,14.97
2023-03-17T16:44:05.591Z,19.60
2023-03-17T16:46:34.863Z,12.97
2023-03-17T16:49:02.298Z,13.23
2023-03-17T16:51:29.274Z,13.10
2023-03-17T16:53:56.241Z,14.43
2023-03-17T16:56:23.202Z,12.10
2023-03-17T16:58:50.413Z,14.03
2023-03-17T17:01:20.834Z,8.10
2023-03-17T17:03:47.941Z,13.40
2023-03-17T17:06:14.855Z,18.73
2023-03-17T17:08:42.616Z,17.93
2023-03-17T17:11:09.437Z,15.80
2023-03-17T17:13:37.691Z,16.03
2023-03-17T17:16:05.098Z,23.73
2023-03-17T17:18:32.309Z,16.87
2023-03-17T17:20:59.149Z,12.77
2023-03-17T17:23:26.593Z,12.73
2023-03-17T17:25:53.396Z,13.47
2023-03-17T17:28:22.586Z,12.97
2023-03-17T17:30:50.763Z,15.43
2023-03-17T17:33:19.147Z,17.63
2023-03-17T17:35:46.142Z,16.60
2023-03-17T17:38:19.763Z,11.43
2023-03-17T17:40:46.860Z,13.17
2023-03-17T17:43:13.683Z,15.47
2023-03-17T17:45:41.374Z,10.73
2023-03-17T17:48:09.734Z,14.17
2023-03-17T17:50:36.655Z,13.70
2023-03-17T17:53:05.439Z,12.03
2023-03-17T17:55:36.258Z,16.53
2023-03-17T17:58:03.392Z,15.90
2023-03-17T18:00:30.909Z,13.13
2023-03-17T18:02:57.933Z,13.07
2023-03-17T18:05:26.075Z,17.70
2023-03-17T18:07:52.801Z,19.67
2023-03-17T18:10:24.128Z,14.90
2023-03-17T18:12:50.910Z,17.40
2023-03-17T18:15:17.898Z,15.13
2023-03-17T18:17:45.656Z,14.40
2023-03-17T18:20:13.246Z,17.60
2023-03-17T18:22:41.758Z,14.77
2023-03-17T18:25:10.002Z,13.23
2023-03-17T18:27:37.777Z,15.17
2023-03-17T18:30:05.810Z,14.53
2023-03-17T18:32:33.752Z,14.50
2023-03-17T18:35:03.042Z,12.50
2023-03-17T18:37:30.171Z,13.00
2023-03-17T18:40:12.246Z,10.67
2023-03-17T18:42:40.868Z,13.00
2023-03-17T18:45:10.821Z,9.50
2023-03-17T18:47:39.134Z,13.57
2023-03-17T18:50:08.472Z,14.10
2023-03-17T18:52:35.990Z,9.73
2023-03-17T18:55:02.966Z,10.97
2023-03-17T18:57:31.386Z,10.03
2023-03-17T18:59:59.280Z,10.47
2023-03-17T19:02:26.238Z,14.30
2023-03-17T19:04:53.527Z,12.20
2023-03-17T19:07:22.766Z,11.30
2023-03-17T19:09:49.827Z,10.63
2023-03-17T19:12:16.809Z,13.77
2023-03-17T19:14:44.053Z,10.20
2023-03-17T19:17:11.142Z,12.67
2023-03-17T19:19:40.462Z,11.87
2023-03-17T19:22:07.843Z,14.80
2023-03-17T19:24:37.553Z,11.57
2023-03-17T19:27:05.859Z,13.03
2023-03-17T19:29:34.011Z,13.03
2023-03-17T19:32:02.581Z,15.73
2023-03-17T19:34:29.494Z,13.67
2023-03-17T19:36:56.613Z,13.33
2023-03-17T19:39:24.664Z,12.43
2023-03-17T19:41:55.303Z,13.17
2023-03-17T19:44:22.343Z,12.03
2023-03-17T19:46:49.197Z,13.43
2023-03-17T19:49:16.674Z,15.30
2023-03-17T19:51:43.424Z,12.03
2023-03-17T19:54:10.525Z,13.63
2023-03-17T19:56:38.549Z,17.80
2023-03-17T19:59:06.140Z,13.03
2023-03-17T20:01:33.273Z,12.43
2023-03-17T20:04:00.222Z,12.60
2023-03-17T20:06:27.382Z,12.33
2023-03-17T20:08:54.441Z,16.77
2023-03-17T20:11:21.211Z,12.07
2023-03-17T20:13:48.750Z,11.30
2023-03-17T20:16:16.637Z,13.07
2023-03-17T20:18:43.609Z,14.63
2023-03-17T20:21:13.758Z,11.80
2023-03-17T20:23:41.122Z,12.87
2023-03-17T20:26:13.840Z,13.73
2023-03-17T20:28:41.674Z,19.60
2023-03-17T20:31:09.545Z,14.63
2023-03-17T20:33:36.592Z,12.93
2023-03-17T20:36:04.946Z,11.97
2023-03-17T20:38:33.465Z,16.07
2023-03-17T20:41:07.518Z,9.37
2023-03-17T20:43:36.370Z,13.73
2023-03-17T20:46:05.996Z,16.63
2023-03-17T20:48:38.511Z,14.53
2023-03-17T20:51:06.438Z,13.40
2023-03-17T20:53:33.710Z,11.50
2023-03-17T20:56:00.695Z,11.60
2023-03-17T20:58:28.718Z,15.57
2023-03-17T21:00:57.425Z,15.03
2023-03-17T21:03:24.244Z,15.60
2023-03-17T21:05:51.765Z,13.67
2023-03-17T21:08:19.058Z,18.97
2023-03-17T21:10:47.303Z,14.57
2023-03-17T21:13:14.586Z,15.37
2023-03-17T21:15:42.467Z,17.07
2023-03-17T21:18:09.137Z,12.93
2023-03-17T21:20:35.953Z,16.33
2023-03-17T21:23:06.092Z,16.33
2023-03-17T21:25:34.230Z,17.43
2023-03-17T21:28:02.320Z,15.20
2023-03-17T21:30:29.781Z,15.20
2023-03-17T21:32:58.792Z,14.87
2023-03-17T21:35:29.878Z,14.77
2023-03-17T21:37:57.386Z,14.97
2023-03-17T21:40:28.196Z,16.00
2023-03-17T21:42:56.198Z,15.80
2023-03-17T21:45:24.391Z,15.37
2023-03-17T21:47:51.720Z,19.60
2023-03-17T21:50:19.088Z,11.57
2023-03-17T21:52:48.105Z,18.27
2023-03-17T21:55:15.644Z,14.40
2023-03-17T21:57:42.651Z,18.83
2023-03-17T22:00:09.825Z,17.10
2023-03-17T22:02:39.875Z,14.37
2023-03-17T22:05:07.203Z,16.50
2023-03-17T22:07:33.898Z,17.70
2023-03-17T22:10:01.271Z,18.63
2023-03-17T22:12:28.830Z,16.07
2023-03-17T22:14:58.592Z,16.83
2023-03-17T22:17:26.351Z,15.80
2023-03-17T22:19:53.335Z,17.27
2023-03-17T22:22:23.408Z,15.50
2023-03-17T22:24:50.277Z,17.23
2023-03-17T22:27:17.070Z,16.37
2023-03-17T22:29:44.183Z,14.57
2023-03-17T22:32:10.932Z,16.47
2023-03-17T22:34:37.782Z,11.77
2023-03-17T22:37:04.679Z,13.43
2023-03-17T22:39:32.079Z,13.03
2023-03-17T22:41:59.275Z,16.67
2023-03-17T22:44:26.344Z,15.90
2023-03-17T22:46:53.151Z,12.47
2023-03-17T22:49:19.878Z,13.83
2023-03-17T22:51:48.054Z,13.80
2023-03-17T22:54:14.819Z,14.13
2023-03-17T22:56:41.681Z,16.80
2023-03-17T22:59:08.933Z,15.10
2023-03-17T23:01:35.771Z,16.57
2023-03-17T23:04:02.716Z,13.80
2023-03-17T23:06:29.440Z,18.17
2023-03-17T23:08:57.941Z,15.00
2023-03-17T23:11:25.543Z,13.47
2023-03-17T23:13:52.735Z,11.87
2023-03-17T23:16:20.363Z,14.13
2023-03-17T23:18:47.755Z,14.87
2023-03-17T23:21:22.101Z,13.67
2023-03-17T23:23:49.543Z,16.37
2023-03-17T23:26:16.327Z,15.67
2023-03-17T23:28:44.492Z,14.20
2023-03-17T23:31:11.243Z,13.33
2023-03-17T23:33:38.882Z,16.13
2023-03-17T23:36:05.943Z,14.90
2023-03-17T23:38:32.712Z,12.40
2023-03-17T23:40:59.363Z,15.40
2023-03-17T23:43:26.566Z,18.93
2023-03-17T23:45:53.924Z,17.40
2023-03-17T23:48:20.816Z,19.00
2023-03-17T23:50:47.683Z,17.53
2023-03-17T23:53:16.722Z,16.57
2023-03-17T23:55:43.601Z,16.60
2023-03-17T23:58:10.280Z,15.67
